Forside
METAR-TAF:

METAR-TAF

Lufthavne :

Ceduna, Australien

Breddekreds: 32-07-50S, længdekreds: 133-42-35E, højde: 23 m

Aktuelle vejr

Denne rapport blev lavet for 27 minutter siden, kl. 01:00 UTC
Vind 17 kt fra nord
Temperatur 37°C
Fugtighed 13%
Tryk 1016 hPa
Sigt 10 km eller mere

METAR: YCDU 240100Z AUTO 01017KT 9999 // NCD 37/04 Q1016

Tid: 11:57 (01:27 UTC)


TAF: fraværende

Vejrobservationer og prognoser fra mere end 4000 lufthavne (METAR og TAF).

De gule og røde prikker repræsenterer de meteorologiske stationer.

Flyt musen over at se navnet på stationen.

Så klik over at se vejr observationer og prognoser.

At skifte det kort: Klik på de grønne knapper med et sort kors for at zoome ind; på den grønne knap med en bindestreg for at zoome ud; eller på de grønne pile for tilstødende kort.


METAR-TAF: